This is the latest recevied weather packets stored in our database for station/object SIILIN. If no packets are shown the sender has not sent any weather packets the latest 10 day(s).
| Time | Temp. | Humidity | Pressure | Rain* | Wind** | Luminosity | Snow |
|---|---|---|---|---|---|---|---|
| 1777786029 | 6.67° C | 82% | 1006.7 hPa | - | - | - | - |
| 1777784828 | 6.67° C | 82% | 1006.6 hPa | - | - | - | - |
| 1777783628 | 6.67° C | 83% | 1006.4 hPa | - | - | - | - |
| 1777782428 | 7.22° C | 80% | 1006.3 hPa | - | - | - | - |
| 1777781228 | 7.22° C | 81% | 1006.3 hPa | - | - | - | - |
| 1777780028 | 7.22° C | 80% | 1006.1 hPa | - | - | - | - |
| 1777778828 | 7.22° C | 79% | 1005.6 hPa | - | - | - | - |
| 1777777628 | 7.78° C | 79% | 1005.6 hPa | - | - | - | - |
| 1777776429 | 7.78° C | 78% | 1005.5 hPa | - | - | - | - |
| 1777775228 | 7.22° C | 79% | 1005.5 hPa | - | - | - | - |
| 1777774028 | 7.22° C | 83% | 1005.4 hPa | - | - | - | - |
| 1777772828 | 7.22° C | 81% | 1005.4 hPa | - | - | - | - |
| 1777771628 | 7.78° C | 73% | 1005.3 hPa | - | - | - | - |
| 1777770428 | 8.33° C | 67% | 1005.3 hPa | - | - | - | - |
| 1777769228 | 9.44° C | 61% | 1005.3 hPa | - | - | - | - |
| 1777768028 | 10.56° C | 56% | 1005.4 hPa | - | - | - | - |
| 1777766828 | 10° C | 56% | 1005.1 hPa | - | - | - | - |
| 1777765628 | 10.56° C | 51% | 1005 hPa | - | - | - | - |
| 1777764428 | 10.56° C | 53% | 1005 hPa | - | - | - | - |
| 1777763228 | 10° C | 57% | 1005.2 hPa | - | - | - | - |
| 1777762028 | 8.33° C | 69% | 1005.4 hPa | - | - | - | - |
| 1777760828 | 10° C | 56% | 1005.5 hPa | - | - | - | - |
| 1777759628 | 10° C | 58% | 1005.7 hPa | - | - | - | - |
| 1777758427 | 10° C | 57% | 1005.9 hPa | - | - | - | - |
| 1777757227 | 10.56° C | 52% | 1005.9 hPa | - | - | - | - |
* Rain since midnight (hover to see other rain measurements)
** Current wind speed in m/s (hover to see current wind gust speed)